sensor_id;sensor_type;location;lat;lon;timestamp;P1;durP1;ratioP1;P2;durP2;ratioP2
38779;SDS011;29273;49.962;9.768;2023-03-03T00:00:43;7.63;;;5.05;;
38779;SDS011;29273;49.962;9.768;2023-03-03T00:03:09;7.38;;;4.88;;
38779;SDS011;29273;49.962;9.768;2023-03-03T00:05:36;7.28;;;5.30;;
38779;SDS011;29273;49.962;9.768;2023-03-03T00:08:03;7.50;;;5.35;;
38779;SDS011;29273;49.962;9.768;2023-03-03T00:10:29;6.15;;;4.57;;
38779;SDS011;29273;49.962;9.768;2023-03-03T00:12:55;7.93;;;5.13;;
38779;SDS011;29273;49.962;9.768;2023-03-03T00:15:21;6.50;;;4.68;;
38779;SDS011;29273;49.962;9.768;2023-03-03T00:17:49;7.72;;;5.07;;
38779;SDS011;29273;49.962;9.768;2023-03-03T00:20:35;6.45;;;4.53;;
38779;SDS011;29273;49.962;9.768;2023-03-03T00:23:16;6.50;;;4.65;;
38779;SDS011;29273;49.962;9.768;2023-03-03T00:25:49;5.68;;;4.25;;
38779;SDS011;29273;49.962;9.768;2023-03-03T00:28:24;7.40;;;5.20;;
38779;SDS011;29273;49.962;9.768;2023-03-03T00:30:56;6.88;;;4.82;;
38779;SDS011;29273;49.962;9.768;2023-03-03T00:33:25;6.25;;;4.35;;
38779;SDS011;29273;49.962;9.768;2023-03-03T00:36:20;6.80;;;4.40;;
38779;SDS011;29273;49.962;9.768;2023-03-03T00:38:53;6.93;;;4.57;;
38779;SDS011;29273;49.962;9.768;2023-03-03T00:41:29;6.93;;;4.60;;
38779;SDS011;29273;49.962;9.768;2023-03-03T00:43:54;6.20;;;4.32;;
38779;SDS011;29273;49.962;9.768;2023-03-03T00:46:21;6.22;;;4.25;;
38779;SDS011;29273;49.962;9.768;2023-03-03T00:48:48;5.50;;;4.07;;
38779;SDS011;29273;49.962;9.768;2023-03-03T00:53:51;5.63;;;3.83;;
38779;SDS011;29273;49.962;9.768;2023-03-03T00:56:16;5.43;;;3.70;;
38779;SDS011;29273;49.962;9.768;2023-03-03T00:58:42;4.78;;;3.47;;
38779;SDS011;29273;49.962;9.768;2023-03-03T01:01:10;7.07;;;4.45;;
38779;SDS011;29273;49.962;9.768;2023-03-03T01:03:42;6.20;;;4.15;;
38779;SDS011;29273;49.962;9.768;2023-03-03T01:06:08;6.10;;;4.35;;
38779;SDS011;29273;49.962;9.768;2023-03-03T01:08:34;4.78;;;3.80;;
38779;SDS011;29273;49.962;9.768;2023-03-03T01:11:04;4.97;;;3.80;;
38779;SDS011;29273;49.962;9.768;2023-03-03T01:13:44;6.40;;;4.30;;
38779;SDS011;29273;49.962;9.768;2023-03-03T01:16:12;5.60;;;3.78;;
38779;SDS011;29273;49.962;9.768;2023-03-03T01:18:38;5.85;;;4.25;;
38779;SDS011;29273;49.962;9.768;2023-03-03T01:21:06;6.28;;;4.55;;
38779;SDS011;29273;49.962;9.768;2023-03-03T01:23:32;6.95;;;4.28;;
38779;SDS011;29273;49.962;9.768;2023-03-03T01:25:59;7.97;;;4.72;;
38779;SDS011;29273;49.962;9.768;2023-03-03T01:28:24;8.27;;;5.43;;
38779;SDS011;29273;49.962;9.768;2023-03-03T01:30:50;7.90;;;5.57;;
38779;SDS011;29273;49.962;9.768;2023-03-03T01:33:16;7.47;;;5.30;;
38779;SDS011;29273;49.962;9.768;2023-03-03T01:35:44;9.13;;;5.25;;
38779;SDS011;29273;49.962;9.768;2023-03-03T01:38:13;7.07;;;4.82;;
38779;SDS011;29273;49.962;9.768;2023-03-03T01:40:39;6.93;;;4.90;;
38779;SDS011;29273;49.962;9.768;2023-03-03T01:43:05;6.78;;;4.78;;
38779;SDS011;29273;49.962;9.768;2023-03-03T01:45:44;8.55;;;4.82;;
38779;SDS011;29273;49.962;9.768;2023-03-03T01:48:30;6.32;;;4.63;;
38779;SDS011;29273;49.962;9.768;2023-03-03T01:51:09;6.57;;;4.47;;
38779;SDS011;29273;49.962;9.768;2023-03-03T01:53:49;9.15;;;5.68;;
38779;SDS011;29273;49.962;9.768;2023-03-03T01:56:17;8.35;;;5.38;;
38779;SDS011;29273;49.962;9.768;2023-03-03T01:58:44;7.57;;;4.80;;
38779;SDS011;29273;49.962;9.768;2023-03-03T02:01:14;7.57;;;4.88;;
38779;SDS011;29273;49.962;9.768;2023-03-03T02:03:43;6.15;;;4.75;;
38779;SDS011;29273;49.962;9.768;2023-03-03T02:06:13;7.00;;;4.70;;
38779;SDS011;29273;49.962;9.768;2023-03-03T02:08:43;6.30;;;4.70;;
38779;SDS011;29273;49.962;9.768;2023-03-03T02:11:12;6.05;;;4.72;;
38779;SDS011;29273;49.962;9.768;2023-03-03T02:13:38;6.97;;;4.85;;
38779;SDS011;29273;49.962;9.768;2023-03-03T02:16:04;5.45;;;4.43;;
38779;SDS011;29273;49.962;9.768;2023-03-03T02:18:31;8.63;;;5.50;;
38779;SDS011;29273;49.962;9.768;2023-03-03T02:21:01;6.45;;;4.93;;
38779;SDS011;29273;49.962;9.768;2023-03-03T02:26:23;7.53;;;4.45;;
38779;SDS011;29273;49.962;9.768;2023-03-03T02:28:55;6.45;;;4.95;;
38779;SDS011;29273;49.962;9.768;2023-03-03T02:31:22;7.32;;;4.90;;
38779;SDS011;29273;49.962;9.768;2023-03-03T02:33:50;6.65;;;4.50;;
38779;SDS011;29273;49.962;9.768;2023-03-03T02:36:24;6.82;;;4.85;;
38779;SDS011;29273;49.962;9.768;2023-03-03T02:41:32;9.05;;;5.63;;
38779;SDS011;29273;49.962;9.768;2023-03-03T02:46:37;7.95;;;5.13;;
38779;SDS011;29273;49.962;9.768;2023-03-03T02:49:05;6.70;;;4.80;;
38779;SDS011;29273;49.962;9.768;2023-03-03T02:51:34;6.90;;;4.40;;
38779;SDS011;29273;49.962;9.768;2023-03-03T02:54:00;7.10;;;4.65;;
38779;SDS011;29273;49.962;9.768;2023-03-03T02:56:28;7.72;;;4.75;;
38779;SDS011;29273;49.962;9.768;2023-03-03T02:58:54;7.90;;;4.90;;
38779;SDS011;29273;49.962;9.768;2023-03-03T03:01:20;6.47;;;4.45;;
38779;SDS011;29273;49.962;9.768;2023-03-03T03:03:47;7.93;;;5.35;;
38779;SDS011;29273;49.962;9.768;2023-03-03T03:06:16;6.85;;;4.80;;
38779;SDS011;29273;49.962;9.768;2023-03-03T03:08:42;7.07;;;4.63;;
38779;SDS011;29273;49.962;9.768;2023-03-03T03:11:08;6.70;;;4.65;;
38779;SDS011;29273;49.962;9.768;2023-03-03T03:13:33;8.07;;;5.28;;
38779;SDS011;29273;49.962;9.768;2023-03-03T03:15:59;7.90;;;4.88;;
38779;SDS011;29273;49.962;9.768;2023-03-03T03:18:25;7.47;;;5.28;;
38779;SDS011;29273;49.962;9.768;2023-03-03T03:20:54;7.03;;;4.97;;
38779;SDS011;29273;49.962;9.768;2023-03-03T03:23:19;6.68;;;5.18;;
38779;SDS011;29273;49.962;9.768;2023-03-03T03:25:47;7.28;;;5.07;;
38779;SDS011;29273;49.962;9.768;2023-03-03T03:28:20;7.63;;;4.50;;
38779;SDS011;29273;49.962;9.768;2023-03-03T03:30:46;7.65;;;5.30;;
38779;SDS011;29273;49.962;9.768;2023-03-03T03:33:11;8.32;;;5.22;;
38779;SDS011;29273;49.962;9.768;2023-03-03T03:35:38;7.25;;;5.18;;
38779;SDS011;29273;49.962;9.768;2023-03-03T03:38:09;7.32;;;5.15;;
38779;SDS011;29273;49.962;9.768;2023-03-03T03:40:35;7.50;;;5.15;;
38779;SDS011;29273;49.962;9.768;2023-03-03T03:43:01;6.88;;;5.18;;
38779;SDS011;29273;49.962;9.768;2023-03-03T03:45:27;7.07;;;5.38;;
38779;SDS011;29273;49.962;9.768;2023-03-03T03:47:52;7.40;;;5.35;;
38779;SDS011;29273;49.962;9.768;2023-03-03T03:50:18;6.63;;;4.82;;
38779;SDS011;29273;49.962;9.768;2023-03-03T03:52:44;8.10;;;5.50;;
38779;SDS011;29273;49.962;9.768;2023-03-03T03:55:10;7.28;;;5.07;;
38779;SDS011;29273;49.962;9.768;2023-03-03T03:57:37;6.55;;;4.80;;
38779;SDS011;29273;49.962;9.768;2023-03-03T04:00:06;8.00;;;4.65;;
38779;SDS011;29273;49.962;9.768;2023-03-03T04:02:39;8.05;;;5.45;;
38779;SDS011;29273;49.962;9.768;2023-03-03T04:05:05;6.20;;;4.20;;
38779;SDS011;29273;49.962;9.768;2023-03-03T04:07:32;7.25;;;4.60;;
38779;SDS011;29273;49.962;9.768;2023-03-03T04:09:58;6.85;;;4.65;;
38779;SDS011;29273;49.962;9.768;2023-03-03T04:12:24;5.78;;;4.25;;
38779;SDS011;29273;49.962;9.768;2023-03-03T04:14:49;5.78;;;4.45;;
38779;SDS011;29273;49.962;9.768;2023-03-03T04:17:19;6.97;;;4.57;;
38779;SDS011;29273;49.962;9.768;2023-03-03T04:19:47;7.00;;;4.88;;
38779;SDS011;29273;49.962;9.768;2023-03-03T04:22:13;7.28;;;5.00;;
38779;SDS011;29273;49.962;9.768;2023-03-03T04:24:39;6.72;;;4.50;;
38779;SDS011;29273;49.962;9.768;2023-03-03T04:27:06;6.63;;;4.63;;
38779;SDS011;29273;49.962;9.768;2023-03-03T04:29:34;8.05;;;5.20;;
38779;SDS011;29273;49.962;9.768;2023-03-03T04:32:00;7.57;;;4.70;;
38779;SDS011;29273;49.962;9.768;2023-03-03T04:34:27;8.65;;;4.90;;
38779;SDS011;29273;49.962;9.768;2023-03-03T04:36:53;7.35;;;5.18;;
38779;SDS011;29273;49.962;9.768;2023-03-03T04:39:19;8.77;;;5.47;;
38779;SDS011;29273;49.962;9.768;2023-03-03T04:41:45;7.22;;;4.90;;
38779;SDS011;29273;49.962;9.768;2023-03-03T04:44:10;7.38;;;5.25;;
38779;SDS011;29273;49.962;9.768;2023-03-03T04:46:36;6.63;;;4.60;;
38779;SDS011;29273;49.962;9.768;2023-03-03T04:49:02;7.78;;;5.18;;
38779;SDS011;29273;49.962;9.768;2023-03-03T04:51:29;7.68;;;5.25;;
38779;SDS011;29273;49.962;9.768;2023-03-03T04:53:54;6.78;;;5.05;;
38779;SDS011;29273;49.962;9.768;2023-03-03T04:56:20;6.82;;;5.05;;
38779;SDS011;29273;49.962;9.768;2023-03-03T04:58:47;8.43;;;5.82;;
38779;SDS011;29273;49.962;9.768;2023-03-03T05:01:12;8.27;;;5.30;;
38779;SDS011;29273;49.962;9.768;2023-03-03T05:03:39;9.10;;;5.35;;
38779;SDS011;29273;49.962;9.768;2023-03-03T05:06:05;6.82;;;5.28;;
38779;SDS011;29273;49.962;9.768;2023-03-03T05:08:31;8.70;;;5.82;;
38779;SDS011;29273;49.962;9.768;2023-03-03T05:10:56;9.05;;;5.72;;
38779;SDS011;29273;49.962;9.768;2023-03-03T05:13:24;8.63;;;5.82;;
38779;SDS011;29273;49.962;9.768;2023-03-03T05:15:52;8.68;;;6.00;;
38779;SDS011;29273;49.962;9.768;2023-03-03T05:18:24;8.60;;;5.70;;
38779;SDS011;29273;49.962;9.768;2023-03-03T05:20:51;8.13;;;5.60;;
38779;SDS011;29273;49.962;9.768;2023-03-03T05:23:18;7.93;;;6.10;;
38779;SDS011;29273;49.962;9.768;2023-03-03T05:25:44;8.55;;;6.32;;
38779;SDS011;29273;49.962;9.768;2023-03-03T05:28:11;8.63;;;6.00;;
38779;SDS011;29273;49.962;9.768;2023-03-03T05:30:37;8.82;;;6.20;;
38779;SDS011;29273;49.962;9.768;2023-03-03T05:33:03;8.57;;;5.95;;
38779;SDS011;29273;49.962;9.768;2023-03-03T05:35:29;8.52;;;5.85;;
38779;SDS011;29273;49.962;9.768;2023-03-03T05:37:55;8.43;;;6.20;;
38779;SDS011;29273;49.962;9.768;2023-03-03T05:40:22;9.15;;;6.10;;
38779;SDS011;29273;49.962;9.768;2023-03-03T05:42:49;7.55;;;5.75;;
38779;SDS011;29273;49.962;9.768;2023-03-03T05:45:14;8.43;;;6.15;;
38779;SDS011;29273;49.962;9.768;2023-03-03T05:47:40;8.70;;;6.15;;
38779;SDS011;29273;49.962;9.768;2023-03-03T05:50:05;10.07;;;6.78;;
38779;SDS011;29273;49.962;9.768;2023-03-03T05:52:31;10.82;;;6.97;;
38779;SDS011;29273;49.962;9.768;2023-03-03T05:54:57;10.70;;;6.68;;
38779;SDS011;29273;49.962;9.768;2023-03-03T05:57:22;9.70;;;6.68;;
38779;SDS011;29273;49.962;9.768;2023-03-03T05:59:48;9.90;;;6.72;;
38779;SDS011;29273;49.962;9.768;2023-03-03T06:02:13;10.68;;;7.07;;
38779;SDS011;29273;49.962;9.768;2023-03-03T06:04:39;10.73;;;7.25;;
38779;SDS011;29273;49.962;9.768;2023-03-03T06:07:05;10.70;;;6.93;;
38779;SDS011;29273;49.962;9.768;2023-03-03T06:09:31;10.15;;;6.82;;
38779;SDS011;29273;49.962;9.768;2023-03-03T06:11:57;12.25;;;7.07;;
38779;SDS011;29273;49.962;9.768;2023-03-03T06:14:22;10.65;;;6.80;;
38779;SDS011;29273;49.962;9.768;2023-03-03T06:16:48;12.40;;;7.72;;
38779;SDS011;29273;49.962;9.768;2023-03-03T06:19:14;11.07;;;6.88;;
38779;SDS011;29273;49.962;9.768;2023-03-03T06:21:40;11.10;;;6.57;;
38779;SDS011;29273;49.962;9.768;2023-03-03T06:24:06;9.30;;;6.90;;
38779;SDS011;29273;49.962;9.768;2023-03-03T06:26:31;8.95;;;6.50;;
38779;SDS011;29273;49.962;9.768;2023-03-03T06:28:58;11.07;;;6.85;;
38779;SDS011;29273;49.962;9.768;2023-03-03T06:31:24;11.73;;;7.53;;
38779;SDS011;29273;49.962;9.768;2023-03-03T06:33:50;9.52;;;6.28;;
38779;SDS011;29273;49.962;9.768;2023-03-03T06:36:16;9.95;;;6.72;;
38779;SDS011;29273;49.962;9.768;2023-03-03T06:38:43;10.85;;;7.60;;
38779;SDS011;29273;49.962;9.768;2023-03-03T06:41:09;10.63;;;7.30;;
38779;SDS011;29273;49.962;9.768;2023-03-03T06:43:35;10.55;;;7.22;;
38779;SDS011;29273;49.962;9.768;2023-03-03T06:46:01;11.07;;;7.50;;
38779;SDS011;29273;49.962;9.768;2023-03-03T06:48:28;10.63;;;7.15;;
38779;SDS011;29273;49.962;9.768;2023-03-03T06:50:54;10.20;;;7.40;;
38779;SDS011;29273;49.962;9.768;2023-03-03T06:53:19;12.75;;;8.30;;
38779;SDS011;29273;49.962;9.768;2023-03-03T06:55:45;14.50;;;9.73;;
38779;SDS011;29273;49.962;9.768;2023-03-03T06:58:12;16.05;;;10.45;;
38779;SDS011;29273;49.962;9.768;2023-03-03T07:00:40;15.25;;;9.95;;
38779;SDS011;29273;49.962;9.768;2023-03-03T07:03:14;13.88;;;9.52;;
38779;SDS011;29273;49.962;9.768;2023-03-03T07:05:41;15.93;;;10.13;;
38779;SDS011;29273;49.962;9.768;2023-03-03T07:08:18;15.48;;;10.38;;
38779;SDS011;29273;49.962;9.768;2023-03-03T07:10:45;15.45;;;9.93;;
38779;SDS011;29273;49.962;9.768;2023-03-03T07:15:42;15.38;;;10.00;;
38779;SDS011;29273;49.962;9.768;2023-03-03T07:18:16;15.30;;;9.80;;
38779;SDS011;29273;49.962;9.768;2023-03-03T07:20:45;15.93;;;10.13;;
38779;SDS011;29273;49.962;9.768;2023-03-03T07:23:14;15.73;;;9.90;;
38779;SDS011;29273;49.962;9.768;2023-03-03T07:25:48;15.48;;;9.48;;
38779;SDS011;29273;49.962;9.768;2023-03-03T07:28:20;14.90;;;9.45;;
38779;SDS011;29273;49.962;9.768;2023-03-03T07:30:48;14.73;;;9.63;;
38779;SDS011;29273;49.962;9.768;2023-03-03T07:33:18;14.55;;;9.80;;
38779;SDS011;29273;49.962;9.768;2023-03-03T07:35:46;13.07;;;9.20;;
38779;SDS011;29273;49.962;9.768;2023-03-03T07:38:16;14.93;;;10.10;;
38779;SDS011;29273;49.962;9.768;2023-03-03T07:40:48;14.82;;;9.75;;
38779;SDS011;29273;49.962;9.768;2023-03-03T07:48:52;14.88;;;9.23;;
38779;SDS011;29273;49.962;9.768;2023-03-03T07:56:41;12.88;;;9.35;;
38779;SDS011;29273;49.962;9.768;2023-03-03T07:59:20;13.85;;;9.07;;
38779;SDS011;29273;49.962;9.768;2023-03-03T08:01:49;14.07;;;9.00;;
38779;SDS011;29273;49.962;9.768;2023-03-03T08:04:18;13.95;;;9.48;;
38779;SDS011;29273;49.962;9.768;2023-03-03T08:11:48;13.43;;;9.25;;
38779;SDS011;29273;49.962;9.768;2023-03-03T08:14:19;14.40;;;9.48;;
38779;SDS011;29273;49.962;9.768;2023-03-03T08:16:50;14.15;;;9.23;;
38779;SDS011;29273;49.962;9.768;2023-03-03T08:19:16;14.88;;;9.02;;
38779;SDS011;29273;49.962;9.768;2023-03-03T08:21:42;15.40;;;9.95;;
38779;SDS011;29273;49.962;9.768;2023-03-03T08:24:08;15.02;;;9.73;;
38779;SDS011;29273;49.962;9.768;2023-03-03T08:26:34;13.88;;;8.90;;
38779;SDS011;29273;49.962;9.768;2023-03-03T08:28:59;13.95;;;9.48;;
38779;SDS011;29273;49.962;9.768;2023-03-03T08:31:25;15.57;;;9.25;;
38779;SDS011;29273;49.962;9.768;2023-03-03T08:33:51;14.60;;;9.27;;
38779;SDS011;29273;49.962;9.768;2023-03-03T08:36:17;13.60;;;9.18;;
38779;SDS011;29273;49.962;9.768;2023-03-03T08:38:42;13.95;;;9.60;;
38779;SDS011;29273;49.962;9.768;2023-03-03T08:41:08;14.85;;;9.82;;
38779;SDS011;29273;49.962;9.768;2023-03-03T08:43:34;12.25;;;8.18;;
38779;SDS011;29273;49.962;9.768;2023-03-03T08:46:00;12.07;;;8.55;;
38779;SDS011;29273;49.962;9.768;2023-03-03T08:48:27;14.13;;;9.85;;
38779;SDS011;29273;49.962;9.768;2023-03-03T08:50:53;13.23;;;9.02;;
38779;SDS011;29273;49.962;9.768;2023-03-03T08:53:19;13.35;;;9.55;;
38779;SDS011;29273;49.962;9.768;2023-03-03T08:55:46;12.57;;;8.75;;
38779;SDS011;29273;49.962;9.768;2023-03-03T08:58:12;14.38;;;9.43;;
38779;SDS011;29273;49.962;9.768;2023-03-03T09:00:39;13.02;;;9.05;;
38779;SDS011;29273;49.962;9.768;2023-03-03T09:03:05;13.82;;;8.98;;
38779;SDS011;29273;49.962;9.768;2023-03-03T09:05:31;13.48;;;9.20;;
38779;SDS011;29273;49.962;9.768;2023-03-03T09:07:57;13.23;;;8.82;;
38779;SDS011;29273;49.962;9.768;2023-03-03T09:10:25;13.93;;;9.55;;
38779;SDS011;29273;49.962;9.768;2023-03-03T09:12:53;11.48;;;8.23;;
38779;SDS011;29273;49.962;9.768;2023-03-03T09:15:24;13.30;;;9.27;;
38779;SDS011;29273;49.962;9.768;2023-03-03T09:17:52;13.63;;;9.35;;
38779;SDS011;29273;49.962;9.768;2023-03-03T09:20:38;13.02;;;9.07;;
38779;SDS011;29273;49.962;9.768;2023-03-03T09:23:25;13.15;;;9.05;;
38779;SDS011;29273;49.962;9.768;2023-03-03T09:28:41;12.30;;;8.63;;
38779;SDS011;29273;49.962;9.768;2023-03-03T09:31:16;13.07;;;8.85;;
38779;SDS011;29273;49.962;9.768;2023-03-03T09:33:48;12.57;;;8.70;;
38779;SDS011;29273;49.962;9.768;2023-03-03T09:36:23;13.13;;;8.25;;
38779;SDS011;29273;49.962;9.768;2023-03-03T09:38:52;13.07;;;8.73;;
38779;SDS011;29273;49.962;9.768;2023-03-03T09:41:27;13.80;;;8.82;;
38779;SDS011;29273;49.962;9.768;2023-03-03T09:49:31;13.73;;;8.70;;
38779;SDS011;29273;49.962;9.768;2023-03-03T10:00:52;11.55;;;7.88;;
38779;SDS011;29273;49.962;9.768;2023-03-03T10:09:58;12.93;;;8.18;;
38779;SDS011;29273;49.962;9.768;2023-03-03T10:21:23;12.23;;;8.18;;
38779;SDS011;29273;49.962;9.768;2023-03-03T10:26:52;13.32;;;8.15;;
38779;SDS011;29273;49.962;9.768;2023-03-03T10:35:07;12.48;;;8.20;;
38779;SDS011;29273;49.962;9.768;2023-03-03T10:38:25;10.82;;;7.80;;
38779;SDS011;29273;49.962;9.768;2023-03-03T10:41:16;11.07;;;7.53;;
38779;SDS011;29273;49.962;9.768;2023-03-03T10:46:32;10.05;;;6.93;;
38779;SDS011;29273;49.962;9.768;2023-03-03T10:49:08;11.88;;;7.60;;
38779;SDS011;29273;49.962;9.768;2023-03-03T10:52:04;10.90;;;7.40;;
38779;SDS011;29273;49.962;9.768;2023-03-03T10:54:50;11.45;;;7.55;;
38779;SDS011;29273;49.962;9.768;2023-03-03T11:00:23;10.70;;;6.83;;
38779;SDS011;29273;49.962;9.768;2023-03-03T11:05:32;9.85;;;6.93;;
38779;SDS011;29273;49.962;9.768;2023-03-03T11:08:06;9.50;;;6.60;;
38779;SDS011;29273;49.962;9.768;2023-03-03T11:13:44;9.88;;;6.72;;
38779;SDS011;29273;49.962;9.768;2023-03-03T11:32:16;9.35;;;6.45;;
38779;SDS011;29273;49.962;9.768;2023-03-03T11:34:59;9.88;;;6.78;;
38779;SDS011;29273;49.962;9.768;2023-03-03T11:37:45;9.05;;;6.30;;
38779;SDS011;29273;49.962;9.768;2023-03-03T11:40:38;9.13;;;6.57;;
38779;SDS011;29273;49.962;9.768;2023-03-03T11:43:15;7.85;;;5.43;;
38779;SDS011;29273;49.962;9.768;2023-03-03T11:45:47;7.78;;;6.03;;
38779;SDS011;29273;49.962;9.768;2023-03-03T11:51:06;7.70;;;5.72;;
38779;SDS011;29273;49.962;9.768;2023-03-03T11:56:09;8.40;;;6.57;;
38779;SDS011;29273;49.962;9.768;2023-03-03T11:58:46;8.93;;;6.20;;
38779;SDS011;29273;49.962;9.768;2023-03-03T12:12:17;7.80;;;5.60;;
38779;SDS011;29273;49.962;9.768;2023-03-03T12:17:23;6.75;;;5.00;;
38779;SDS011;29273;49.962;9.768;2023-03-03T12:20:17;7.70;;;5.43;;
38779;SDS011;29273;49.962;9.768;2023-03-03T12:22:51;7.93;;;5.43;;
38779;SDS011;29273;49.962;9.768;2023-03-03T12:28:23;7.55;;;5.25;;
38779;SDS011;29273;49.962;9.768;2023-03-03T12:33:58;8.07;;;5.45;;
38779;SDS011;29273;49.962;9.768;2023-03-03T12:48:16;7.63;;;5.20;;
38779;SDS011;29273;49.962;9.768;2023-03-03T12:54:20;6.82;;;4.75;;
38779;SDS011;29273;49.962;9.768;2023-03-03T12:59:20;6.63;;;4.93;;
38779;SDS011;29273;49.962;9.768;2023-03-03T13:04:54;7.13;;;5.20;;
38779;SDS011;29273;49.962;9.768;2023-03-03T13:07:26;7.82;;;5.32;;
38779;SDS011;29273;49.962;9.768;2023-03-03T13:10:12;6.95;;;4.22;;
38779;SDS011;29273;49.962;9.768;2023-03-03T13:15:21;6.47;;;4.90;;
38779;SDS011;29273;49.962;9.768;2023-03-03T13:20:46;6.88;;;4.57;;
38779;SDS011;29273;49.962;9.768;2023-03-03T13:31:34;5.22;;;3.85;;
38779;SDS011;29273;49.962;9.768;2023-03-03T13:34:04;5.75;;;3.97;;
38779;SDS011;29273;49.962;9.768;2023-03-03T13:36:40;5.43;;;3.95;;
38779;SDS011;29273;49.962;9.768;2023-03-03T13:39:34;5.20;;;4.00;;
38779;SDS011;29273;49.962;9.768;2023-03-03T13:44:45;5.40;;;3.90;;
38779;SDS011;29273;49.962;9.768;2023-03-03T13:47:24;5.70;;;3.92;;
38779;SDS011;29273;49.962;9.768;2023-03-03T13:50:21;5.75;;;3.70;;
38779;SDS011;29273;49.962;9.768;2023-03-03T13:52:59;6.07;;;4.15;;
38779;SDS011;29273;49.962;9.768;2023-03-03T13:55:39;5.03;;;3.72;;
38779;SDS011;29273;49.962;9.768;2023-03-03T14:00:46;5.13;;;3.63;;
38779;SDS011;29273;49.962;9.768;2023-03-03T14:06:03;4.80;;;3.35;;
38779;SDS011;29273;49.962;9.768;2023-03-03T14:08:48;4.80;;;3.33;;
38779;SDS011;29273;49.962;9.768;2023-03-03T14:11:36;4.00;;;2.95;;
38779;SDS011;29273;49.962;9.768;2023-03-03T14:17:33;4.53;;;2.95;;
38779;SDS011;29273;49.962;9.768;2023-03-03T14:20:24;4.68;;;3.30;;
38779;SDS011;29273;49.962;9.768;2023-03-03T14:22:53;4.15;;;3.10;;
38779;SDS011;29273;49.962;9.768;2023-03-03T14:25:20;5.03;;;3.28;;
38779;SDS011;29273;49.962;9.768;2023-03-03T14:35:41;5.50;;;3.33;;
38779;SDS011;29273;49.962;9.768;2023-03-03T14:38:12;4.43;;;3.40;;
38779;SDS011;29273;49.962;9.768;2023-03-03T14:40:41;4.90;;;3.35;;
38779;SDS011;29273;49.962;9.768;2023-03-03T14:46:58;4.88;;;3.35;;
38779;SDS011;29273;49.962;9.768;2023-03-03T14:49:15;4.57;;;3.30;;
38779;SDS011;29273;49.962;9.768;2023-03-03T14:51:53;4.05;;;3.00;;
38779;SDS011;29273;49.962;9.768;2023-03-03T14:54:36;4.53;;;3.25;;
38779;SDS011;29273;49.962;9.768;2023-03-03T14:59:54;5.63;;;3.75;;
38779;SDS011;29273;49.962;9.768;2023-03-03T15:05:21;5.72;;;4.03;;
38779;SDS011;29273;49.962;9.768;2023-03-03T15:08:06;5.32;;;4.00;;
38779;SDS011;29273;49.962;9.768;2023-03-03T15:18:24;7.20;;;4.45;;
38779;SDS011;29273;49.962;9.768;2023-03-03T15:21:03;6.13;;;4.72;;
38779;SDS011;29273;49.962;9.768;2023-03-03T15:26:44;6.72;;;4.55;;
38779;SDS011;29273;49.962;9.768;2023-03-03T15:29:24;5.28;;;3.75;;
38779;SDS011;29273;49.962;9.768;2023-03-03T15:34:36;5.60;;;3.83;;
38779;SDS011;29273;49.962;9.768;2023-03-03T15:40:16;5.35;;;3.85;;
38779;SDS011;29273;49.962;9.768;2023-03-03T15:43:05;5.00;;;3.78;;
38779;SDS011;29273;49.962;9.768;2023-03-03T15:45:44;4.40;;;3.25;;
38779;SDS011;29273;49.962;9.768;2023-03-03T15:54:14;5.35;;;3.15;;
38779;SDS011;29273;49.962;9.768;2023-03-03T15:56:55;4.28;;;3.20;;
38779;SDS011;29273;49.962;9.768;2023-03-03T16:01:59;3.30;;;2.65;;
38779;SDS011;29273;49.962;9.768;2023-03-03T16:04:36;4.25;;;3.00;;
38779;SDS011;29273;49.962;9.768;2023-03-03T16:07:20;4.50;;;3.17;;
38779;SDS011;29273;49.962;9.768;2023-03-03T16:21:27;4.22;;;2.85;;
38779;SDS011;29273;49.962;9.768;2023-03-03T16:23:55;4.75;;;2.80;;
38779;SDS011;29273;49.962;9.768;2023-03-03T16:31:36;4.68;;;3.33;;
38779;SDS011;29273;49.962;9.768;2023-03-03T16:36:57;4.03;;;3.08;;
38779;SDS011;29273;49.962;9.768;2023-03-03T16:39:33;3.83;;;2.80;;
38779;SDS011;29273;49.962;9.768;2023-03-03T16:42:16;4.13;;;2.97;;
38779;SDS011;29273;49.962;9.768;2023-03-03T16:55:50;4.55;;;3.15;;
38779;SDS011;29273;49.962;9.768;2023-03-03T17:01:28;3.88;;;2.90;;
38779;SDS011;29273;49.962;9.768;2023-03-03T17:04:13;5.00;;;3.17;;
38779;SDS011;29273;49.962;9.768;2023-03-03T17:06:59;4.90;;;3.20;;
38779;SDS011;29273;49.962;9.768;2023-03-03T17:15:18;4.30;;;3.08;;
38779;SDS011;29273;49.962;9.768;2023-03-03T17:20:49;4.47;;;3.10;;
38779;SDS011;29273;49.962;9.768;2023-03-03T17:39:56;4.35;;;3.13;;
38779;SDS011;29273;49.962;9.768;2023-03-03T17:42:46;4.32;;;3.10;;
38779;SDS011;29273;49.962;9.768;2023-03-03T17:45:20;6.38;;;3.30;;
38779;SDS011;29273;49.962;9.768;2023-03-03T17:56:15;7.00;;;3.65;;
38779;SDS011;29273;49.962;9.768;2023-03-03T18:01:48;5.13;;;3.38;;
38779;SDS011;29273;49.962;9.768;2023-03-03T18:07:13;3.88;;;3.00;;
38779;SDS011;29273;49.962;9.768;2023-03-03T18:09:57;4.75;;;3.30;;
38779;SDS011;29273;49.962;9.768;2023-03-03T18:16:19;4.18;;;3.05;;
38779;SDS011;29273;49.962;9.768;2023-03-03T18:18:59;4.35;;;3.00;;
38779;SDS011;29273;49.962;9.768;2023-03-03T18:26:54;5.32;;;3.67;;
38779;SDS011;29273;49.962;9.768;2023-03-03T18:29:36;4.75;;;3.60;;
38779;SDS011;29273;49.962;9.768;2023-03-03T18:32:03;5.13;;;3.70;;
38779;SDS011;29273;49.962;9.768;2023-03-03T18:34:42;5.50;;;3.50;;
38779;SDS011;29273;49.962;9.768;2023-03-03T18:40:41;5.28;;;3.15;;
38779;SDS011;29273;49.962;9.768;2023-03-03T18:42:53;5.00;;;3.70;;
38779;SDS011;29273;49.962;9.768;2023-03-03T18:50:58;5.18;;;3.60;;
38779;SDS011;29273;49.962;9.768;2023-03-03T18:53:18;5.18;;;3.53;;
38779;SDS011;29273;49.962;9.768;2023-03-03T18:55:51;4.55;;;3.47;;
38779;SDS011;29273;49.962;9.768;2023-03-03T18:58:26;6.05;;;3.83;;
38779;SDS011;29273;49.962;9.768;2023-03-03T19:01:44;5.15;;;3.47;;
38779;SDS011;29273;49.962;9.768;2023-03-03T19:09:00;5.55;;;3.60;;
38779;SDS011;29273;49.962;9.768;2023-03-03T19:11:36;4.72;;;3.15;;
38779;SDS011;29273;49.962;9.768;2023-03-03T19:16:50;5.05;;;3.50;;
38779;SDS011;29273;49.962;9.768;2023-03-03T19:19:20;6.00;;;3.65;;
38779;SDS011;29273;49.962;9.768;2023-03-03T19:22:13;5.05;;;3.78;;
38779;SDS011;29273;49.962;9.768;2023-03-03T19:30:35;3.65;;;2.70;;
38779;SDS011;29273;49.962;9.768;2023-03-03T19:33:14;4.78;;;3.28;;
38779;SDS011;29273;49.962;9.768;2023-03-03T19:41:34;6.10;;;3.60;;
38779;SDS011;29273;49.962;9.768;2023-03-03T19:44:18;4.32;;;3.22;;
38779;SDS011;29273;49.962;9.768;2023-03-03T19:54:51;6.45;;;3.17;;
38779;SDS011;29273;49.962;9.768;2023-03-03T19:58:08;4.50;;;3.08;;
38779;SDS011;29273;49.962;9.768;2023-03-03T20:00:26;5.72;;;3.05;;
38779;SDS011;29273;49.962;9.768;2023-03-03T20:06:06;6.38;;;3.65;;
38779;SDS011;29273;49.962;9.768;2023-03-03T20:08:43;7.05;;;3.92;;
38779;SDS011;29273;49.962;9.768;2023-03-03T20:16:39;7.10;;;4.00;;
38779;SDS011;29273;49.962;9.768;2023-03-03T20:21:48;6.30;;;4.15;;
38779;SDS011;29273;49.962;9.768;2023-03-03T20:30:02;6.72;;;4.22;;
38779;SDS011;29273;49.962;9.768;2023-03-03T20:35:38;6.07;;;4.03;;
38779;SDS011;29273;49.962;9.768;2023-03-03T20:46:10;5.93;;;4.18;;
38779;SDS011;29273;49.962;9.768;2023-03-03T20:57:19;8.25;;;5.45;;
38779;SDS011;29273;49.962;9.768;2023-03-03T21:05:27;11.55;;;6.15;;
38779;SDS011;29273;49.962;9.768;2023-03-03T21:10:26;10.05;;;6.18;;
38779;SDS011;29273;49.962;9.768;2023-03-03T21:12:55;9.50;;;5.63;;
38779;SDS011;29273;49.962;9.768;2023-03-03T21:15:24;8.68;;;5.45;;
38779;SDS011;29273;49.962;9.768;2023-03-03T21:17:55;9.63;;;5.65;;
38779;SDS011;29273;49.962;9.768;2023-03-03T21:22:53;10.30;;;5.70;;